createdAt,value
2018-12-12T00:01:01.909Z,53.54
2018-12-12T00:03:27.883Z,53.41
2018-12-12T00:05:53.866Z,52.98
2018-12-12T00:08:19.850Z,53.46
2018-12-12T00:10:45.801Z,53.76
2018-12-12T00:13:11.804Z,53.91
2018-12-12T00:15:37.782Z,53.48
2018-12-12T00:18:03.794Z,52.92
2018-12-12T00:20:29.757Z,53.03
2018-12-12T00:22:55.744Z,53.24
2018-12-12T00:25:21.709Z,53.11
2018-12-12T00:27:47.657Z,53.30
2018-12-12T00:30:13.637Z,53.22
2018-12-12T00:32:39.595Z,52.92
2018-12-12T00:35:05.553Z,53.28
2018-12-12T00:37:31.508Z,52.66
2018-12-12T00:39:57.492Z,52.99
2018-12-12T00:42:23.456Z,53.26
2018-12-12T00:44:49.449Z,52.63
2018-12-12T00:47:15.757Z,51.74
2018-12-12T00:49:41.724Z,51.90
2018-12-12T00:52:07.712Z,52.82
2018-12-12T00:54:33.681Z,52.83
2018-12-12T00:56:59.679Z,52.47
2018-12-12T00:59:25.657Z,53.54
2018-12-12T01:01:51.626Z,53.37
2018-12-12T01:04:17.589Z,53.53
2018-12-12T01:06:43.555Z,53.47
2018-12-12T01:09:09.676Z,53.13
2018-12-12T01:11:35.636Z,53.18
2018-12-12T01:14:01.629Z,52.66
2018-12-12T01:16:27.596Z,53.16
2018-12-12T01:18:53.558Z,52.99
2018-12-12T01:21:19.529Z,52.78
2018-12-12T01:23:45.477Z,52.21
2018-12-12T01:26:11.433Z,51.37
2018-12-12T01:28:37.391Z,52.16
2018-12-12T01:31:03.358Z,52.73
2018-12-12T01:33:29.359Z,52.43
2018-12-12T01:35:55.328Z,53.23
2018-12-12T01:38:21.278Z,53.29
2018-12-12T01:40:47.918Z,52.65
2018-12-12T01:43:13.913Z,52.85
2018-12-12T01:45:39.921Z,52.37
2018-12-12T01:48:05.870Z,52.44
2018-12-12T01:50:31.840Z,53.19
2018-12-12T01:52:57.798Z,52.51
2018-12-12T01:55:24.375Z,53.47
2018-12-12T01:57:50.854Z,52.94
2018-12-12T02:00:17.021Z,53.32
2018-12-12T02:02:43.059Z,52.95
2018-12-12T02:05:09.045Z,53.15
2018-12-12T02:07:34.988Z,53.42
2018-12-12T02:10:00.970Z,53.01
2018-12-12T02:12:26.939Z,53.22
2018-12-12T02:14:52.905Z,53.40
2018-12-12T02:17:18.867Z,53.39
2018-12-12T02:19:44.860Z,52.76
2018-12-12T02:22:10.823Z,52.65
2018-12-12T02:24:36.800Z,52.94
2018-12-12T02:27:02.791Z,52.44
2018-12-12T02:29:28.746Z,53.12
2018-12-12T02:31:54.698Z,53.15
2018-12-12T02:34:20.660Z,52.96
2018-12-12T02:36:46.636Z,53.57
2018-12-12T02:39:12.600Z,53.36
2018-12-12T02:41:38.561Z,53.20
2018-12-12T02:44:04.506Z,53.32
2018-12-12T02:46:30.473Z,53.82
2018-12-12T02:48:56.444Z,54.15
2018-12-12T02:51:22.435Z,53.65
2018-12-12T02:56:23.337Z,53.44
2018-12-12T02:58:49.339Z,53.24
2018-12-12T03:01:15.305Z,53.90
2018-12-12T03:03:41.291Z,53.87
2018-12-12T03:06:07.348Z,54.74
2018-12-12T03:08:33.360Z,54.17
2018-12-12T03:10:59.368Z,54.03
2018-12-12T03:13:25.348Z,54.15
2018-12-12T03:15:51.347Z,53.66
2018-12-12T03:18:17.344Z,54.04
2018-12-12T03:20:44.193Z,53.24
2018-12-12T03:23:10.191Z,53.57
2018-12-12T03:25:36.134Z,54.22
2018-12-12T03:28:02.097Z,53.54
2018-12-12T03:30:28.084Z,53.23
2018-12-12T03:32:54.049Z,53.91
2018-12-12T03:35:20.000Z,53.82
2018-12-12T03:37:45.966Z,54.04
2018-12-12T03:40:11.949Z,53.33
2018-12-12T03:42:38.044Z,53.87
2018-12-12T03:45:04.035Z,53.34
2018-12-12T03:47:32.338Z,53.21
2018-12-12T03:49:58.526Z,54.18
2018-12-12T03:52:24.489Z,54.26
2018-12-12T03:54:50.511Z,54.17
2018-12-12T03:57:16.459Z,53.67
2018-12-12T03:59:42.421Z,53.59
2018-12-12T04:02:08.378Z,54.21
2018-12-12T04:04:34.330Z,54.42
2018-12-12T04:07:00.323Z,53.87
2018-12-12T04:09:26.284Z,54.39
2018-12-12T04:11:52.285Z,54.03
2018-12-12T04:14:18.274Z,53.12
2018-12-12T04:16:44.252Z,52.75
2018-12-12T04:19:10.444Z,53.56
2018-12-12T04:21:36.398Z,53.89
2018-12-12T04:29:06.423Z,53.09
2018-12-12T04:31:32.371Z,53.26
2018-12-12T04:34:04.210Z,53.42
2018-12-12T04:36:31.256Z,54.11
2018-12-12T04:38:57.250Z,54.36
2018-12-12T04:41:24.236Z,54.48
2018-12-12T04:46:22.652Z,54.49
2018-12-12T04:48:48.620Z,54.60
2018-12-12T04:51:14.691Z,54.14
2018-12-12T04:53:41.324Z,53.82
2018-12-12T04:56:07.291Z,53.99
2018-12-12T04:58:34.317Z,54.88
2018-12-12T05:01:00.277Z,54.51
2018-12-12T05:03:26.238Z,54.70
2018-12-12T05:05:52.241Z,58.88
2018-12-12T05:08:18.197Z,58.22
2018-12-12T05:10:44.186Z,56.41
2018-12-12T05:13:10.149Z,57.95
2018-12-12T05:15:40.923Z,58.03
2018-12-12T05:18:06.952Z,56.18
2018-12-12T05:20:32.938Z,57.09
2018-12-12T05:22:58.910Z,57.08
2018-12-12T05:25:24.922Z,56.23
2018-12-12T05:27:50.987Z,56.86
2018-12-12T05:30:16.971Z,56.91
2018-12-12T05:32:42.944Z,57.06
2018-12-12T05:35:08.941Z,55.37
2018-12-12T05:37:35.668Z,55.03
2018-12-12T05:40:01.662Z,55.88
2018-12-12T05:42:27.717Z,55.62
2018-12-12T05:44:53.746Z,56.64
2018-12-12T05:47:19.699Z,56.06
2018-12-12T05:49:45.656Z,56.15
2018-12-12T05:52:12.240Z,55.73
2018-12-12T05:54:38.248Z,55.71
2018-12-12T05:57:04.276Z,55.79
2018-12-12T05:59:30.320Z,56.08
2018-12-12T06:01:56.525Z,54.98
2018-12-12T06:04:22.697Z,54.68
2018-12-12T06:06:48.783Z,54.95
2018-12-12T06:09:14.763Z,53.68
2018-12-12T06:11:40.842Z,54.82
2018-12-12T06:14:06.833Z,55.03
2018-12-12T06:16:32.808Z,54.94
2018-12-12T06:18:58.796Z,55.28
2018-12-12T06:21:24.761Z,55.32
2018-12-12T06:23:50.767Z,55.24
2018-12-12T06:26:16.772Z,54.78
2018-12-12T06:28:42.782Z,54.64
2018-12-12T06:31:08.740Z,54.56
2018-12-12T06:33:34.768Z,53.70
2018-12-12T06:36:01.917Z,55.02
2018-12-12T06:38:27.892Z,55.19
2018-12-12T06:40:53.864Z,55.06
2018-12-12T06:43:19.923Z,54.52
2018-12-12T06:45:45.893Z,54.56
2018-12-12T06:48:11.861Z,54.26
2018-12-12T06:50:37.864Z,54.77
2018-12-12T06:53:03.835Z,55.09
2018-12-12T06:55:29.843Z,55.09
2018-12-12T07:08:01.643Z,54.61
2018-12-12T07:10:27.606Z,54.07
2018-12-12T07:12:53.572Z,54.31
2018-12-12T07:15:19.674Z,54.81
2018-12-12T07:17:45.792Z,54.26
2018-12-12T07:20:11.789Z,54.46
2018-12-12T07:22:37.810Z,54.81
2018-12-12T07:25:03.809Z,54.19
2018-12-12T07:27:29.763Z,53.79
2018-12-12T07:29:55.701Z,54.25
2018-12-12T07:32:25.985Z,54.74
2018-12-12T07:34:50.528Z,54.50
2018-12-12T07:37:16.937Z,54.56
2018-12-12T07:39:42.906Z,54.53
2018-12-12T07:42:08.940Z,54.74
2018-12-12T07:44:34.944Z,54.25
2018-12-12T07:47:00.931Z,54.77
2018-12-12T07:49:26.885Z,54.04
2018-12-12T07:51:52.879Z,54.77
2018-12-12T07:54:18.862Z,54.21
2018-12-12T07:56:45.183Z,54.41
2018-12-12T07:59:11.694Z,53.91
2018-12-12T08:01:37.646Z,54.06
2018-12-12T08:04:03.615Z,54.24
2018-12-12T08:06:29.609Z,53.98
2018-12-12T08:08:55.683Z,54.39
2018-12-12T08:11:21.651Z,54.06
2018-12-12T08:13:47.625Z,54.57
2018-12-12T08:16:13.585Z,53.90
2018-12-12T08:18:39.599Z,54.44
2018-12-12T08:21:05.979Z,53.48
2018-12-12T08:23:31.983Z,53.73
2018-12-12T08:25:58.011Z,53.87
2018-12-12T08:28:23.997Z,54.18
2018-12-12T08:30:49.975Z,54.25
2018-12-12T08:33:16.017Z,53.32
2018-12-12T08:35:41.984Z,53.83
2018-12-12T08:38:08.639Z,53.61
2018-12-12T08:40:34.656Z,53.51
2018-12-12T08:43:00.620Z,54.47
2018-12-12T08:45:26.639Z,54.72
2018-12-12T08:47:52.644Z,54.48
2018-12-12T08:50:18.618Z,53.84
2018-12-12T08:52:44.604Z,54.14
2018-12-12T08:55:17.418Z,53.64
2018-12-12T08:57:39.687Z,53.71
2018-12-12T09:00:05.799Z,54.20
2018-12-12T09:02:31.913Z,53.65
2018-12-12T09:04:57.928Z,53.93
2018-12-12T09:07:23.881Z,53.39
2018-12-12T09:09:50.727Z,54.24
2018-12-12T09:12:16.708Z,53.69
2018-12-12T09:14:42.676Z,52.96
2018-12-12T09:17:09.747Z,53.03
2018-12-12T09:19:36.057Z,53.01
2018-12-12T09:22:02.060Z,53.02
2018-12-12T09:24:28.036Z,52.29
2018-12-12T09:26:54.028Z,52.56
2018-12-12T09:29:19.984Z,51.96
2018-12-12T09:31:45.943Z,52.88
2018-12-12T09:34:11.920Z,53.40
2018-12-12T09:36:37.881Z,53.62
2018-12-12T09:39:03.842Z,53.29
2018-12-12T09:41:29.817Z,53.32
2018-12-12T09:43:55.788Z,53.09
2018-12-12T09:46:22.699Z,52.86
2018-12-12T09:48:53.853Z,52.81
2018-12-12T09:51:19.833Z,52.78
2018-12-12T09:53:45.823Z,52.17
2018-12-12T09:56:12.835Z,53.12
2018-12-12T09:58:38.817Z,53.43
2018-12-12T10:01:04.757Z,53.55
2018-12-12T10:03:31.275Z,52.94
2018-12-12T10:05:58.589Z,52.88
2018-12-12T10:13:32.467Z,52.53
2018-12-12T10:15:58.520Z,52.84
2018-12-12T10:18:24.510Z,52.98
2018-12-12T10:20:50.539Z,52.83
2018-12-12T10:23:16.615Z,52.35
2018-12-12T10:25:42.556Z,52.61
2018-12-12T10:28:08.537Z,52.79
2018-12-12T10:30:34.520Z,52.68
2018-12-12T10:33:01.196Z,52.60
2018-12-12T10:35:27.180Z,52.31
2018-12-12T10:37:53.194Z,51.39
2018-12-12T10:40:22.747Z,52.19
2018-12-12T10:42:48.741Z,52.60
2018-12-12T10:45:14.769Z,51.50
2018-12-12T10:47:40.784Z,52.00
2018-12-12T10:50:06.744Z,52.47
2018-12-12T10:52:32.692Z,51.62
2018-12-12T10:54:58.650Z,51.43
2018-12-12T10:57:24.600Z,50.99
2018-12-12T10:59:50.703Z,51.06
2018-12-12T11:02:16.850Z,50.59
2018-12-12T11:04:42.828Z,50.46
2018-12-12T11:07:08.827Z,50.69
2018-12-12T11:09:34.822Z,50.91
2018-12-12T11:12:00.874Z,50.19
2018-12-12T11:14:26.856Z,50.49
2018-12-12T11:16:52.879Z,50.35
2018-12-12T11:19:18.822Z,50.25
2018-12-12T11:21:44.822Z,50.27
2018-12-12T11:24:10.819Z,50.59
2018-12-12T11:26:36.797Z,50.37
2018-12-12T11:29:02.800Z,49.65
2018-12-12T11:31:28.768Z,48.64
2018-12-12T11:33:54.712Z,49.91
2018-12-12T11:36:20.671Z,49.85
2018-12-12T11:38:46.634Z,50.35
2018-12-12T11:41:12.577Z,49.72
2018-12-12T11:43:38.548Z,49.78
2018-12-12T11:46:04.529Z,49.04
2018-12-12T11:48:30.528Z,49.01
2018-12-12T11:50:56.508Z,49.05
2018-12-12T11:53:22.465Z,48.96
2018-12-12T11:55:48.428Z,47.92
2018-12-12T11:58:14.430Z,48.67
2018-12-12T12:00:40.392Z,48.74
2018-12-12T12:03:06.399Z,48.79
2018-12-12T12:05:32.982Z,49.22
2018-12-12T12:07:59.081Z,49.48
2018-12-12T12:10:25.140Z,48.74
2018-12-12T12:12:51.112Z,49.23
2018-12-12T12:15:17.130Z,49.25
2018-12-12T12:17:43.116Z,48.07
2018-12-12T12:20:09.109Z,48.21
2018-12-12T12:22:35.103Z,49.25
2018-12-12T12:25:02.170Z,47.86
2018-12-12T12:27:28.156Z,48.17
2018-12-12T12:29:54.144Z,47.55
2018-12-12T12:32:20.101Z,48.06
2018-12-12T12:34:46.929Z,47.55
2018-12-12T12:37:12.895Z,48.35
2018-12-12T12:42:10.885Z,47.55
2018-12-12T12:44:37.647Z,47.47
2018-12-12T12:47:03.627Z,47.62
2018-12-12T12:49:29.598Z,47.05
2018-12-12T12:51:55.579Z,47.59
2018-12-12T12:54:21.545Z,47.20
2018-12-12T12:56:47.516Z,47.06
2018-12-12T12:59:14.504Z,47.69
2018-12-12T13:01:40.485Z,47.75
2018-12-12T13:04:09.593Z,49.93
2018-12-12T13:06:34.471Z,49.47
2018-12-12T13:09:00.431Z,49.45
2018-12-12T13:11:26.456Z,47.61
2018-12-12T13:13:52.435Z,47.65
2018-12-12T13:16:18.412Z,48.11
2018-12-12T13:18:44.438Z,47.47
2018-12-12T13:21:10.392Z,47.71
2018-12-12T13:23:36.384Z,48.53
2018-12-12T13:28:35.149Z,47.73
2018-12-12T13:31:01.132Z,47.71
2018-12-12T13:33:27.132Z,48.06
2018-12-12T13:35:53.077Z,47.97
2018-12-12T13:38:19.095Z,48.52
2018-12-12T13:40:45.099Z,48.33
2018-12-12T13:43:11.092Z,48.34
2018-12-12T13:45:37.080Z,48.74
2018-12-12T13:48:03.082Z,48.50
2018-12-12T13:50:29.208Z,49.03
2018-12-12T13:52:55.276Z,48.68
2018-12-12T13:55:21.289Z,48.73
2018-12-12T13:57:52.345Z,48.65
2018-12-12T14:00:18.362Z,48.17
2018-12-12T14:02:44.390Z,48.41
2018-12-12T14:05:10.375Z,48.47
2018-12-12T14:07:39.475Z,48.06
2018-12-12T14:10:05.438Z,48.21
2018-12-12T14:12:31.388Z,48.22
2018-12-12T14:14:57.436Z,48.14
2018-12-12T14:17:24.296Z,48.08
2018-12-12T14:19:50.295Z,48.69
2018-12-12T14:22:16.247Z,49.00
2018-12-12T14:24:42.221Z,49.32
2018-12-12T14:27:08.211Z,48.95
2018-12-12T14:29:34.179Z,48.17
2018-12-12T14:32:00.147Z,49.04
2018-12-12T14:34:29.234Z,48.07
2018-12-12T14:36:54.165Z,48.72
2018-12-12T14:39:20.136Z,48.20
2018-12-12T14:41:46.089Z,48.37
2018-12-12T14:44:12.132Z,48.31
2018-12-12T14:46:38.140Z,47.76
2018-12-12T14:49:04.103Z,47.77
2018-12-12T14:51:31.147Z,48.34
2018-12-12T14:53:57.237Z,50.01
2018-12-12T14:56:23.213Z,48.73
2018-12-12T14:58:49.331Z,48.88
2018-12-12T15:01:15.310Z,48.51
2018-12-12T15:03:41.316Z,48.79
2018-12-12T15:06:07.303Z,48.46
2018-12-12T15:08:34.306Z,48.31
2018-12-12T15:11:03.299Z,48.18
2018-12-12T15:13:31.472Z,48.57
2018-12-12T15:15:58.264Z,48.49
2018-12-12T15:18:24.347Z,49.04
2018-12-12T15:20:51.478Z,48.90
2018-12-12T15:23:19.733Z,48.29
2018-12-12T15:28:17.348Z,49.29
2018-12-12T15:30:44.417Z,49.53
2018-12-12T15:33:13.259Z,49.32
2018-12-12T15:35:43.745Z,49.06
2018-12-12T15:38:13.747Z,49.19
2018-12-12T15:43:11.018Z,49.73
2018-12-12T15:45:39.306Z,49.76
2018-12-12T15:48:06.342Z,49.81
2018-12-12T15:50:36.347Z,49.71
2018-12-12T15:53:03.397Z,50.26
2018-12-12T15:55:29.521Z,49.73
2018-12-12T15:58:00.125Z,50.25
2018-12-12T16:00:29.129Z,49.72
2018-12-12T16:02:55.162Z,49.98
2018-12-12T16:10:24.580Z,49.77
2018-12-12T16:12:50.642Z,49.91
2018-12-12T16:15:20.143Z,50.34
2018-12-12T16:17:46.172Z,50.24
2018-12-12T16:22:45.900Z,51.15
2018-12-12T16:25:12.952Z,51.25
2018-12-12T16:27:38.953Z,50.83
2018-12-12T16:30:07.047Z,50.23
2018-12-12T16:32:33.097Z,51.20
2018-12-12T16:34:59.167Z,50.92
2018-12-12T16:39:59.031Z,50.93
2018-12-12T16:42:25.216Z,51.38
2018-12-12T16:44:51.205Z,51.59
2018-12-12T16:47:17.307Z,51.25
2018-12-12T16:49:43.320Z,51.62
2018-12-12T16:52:09.681Z,51.67
2018-12-12T16:54:35.644Z,51.19
2018-12-12T16:57:02.618Z,50.58
2018-12-12T16:59:28.953Z,51.06
2018-12-12T17:01:54.945Z,49.79
2018-12-12T17:04:20.903Z,49.61
2018-12-12T17:06:46.997Z,51.90
2018-12-12T17:09:13.012Z,50.92
2018-12-12T17:16:44.020Z,50.43
2018-12-12T17:19:09.983Z,50.46
2018-12-12T17:21:35.979Z,50.46
2018-12-12T17:24:01.961Z,51.04
2018-12-12T17:26:27.927Z,50.97
2018-12-12T17:28:53.903Z,51.25
2018-12-12T17:31:19.905Z,51.11
2018-12-12T17:33:46.414Z,51.35
2018-12-12T17:36:13.763Z,50.82
2018-12-12T17:38:39.705Z,51.47
2018-12-12T17:41:05.940Z,51.36
2018-12-12T17:43:31.917Z,51.27
2018-12-12T17:45:57.884Z,51.62
2018-12-12T17:48:23.825Z,51.77
2018-12-12T17:50:49.829Z,51.40
2018-12-12T17:53:16.592Z,52.42
2018-12-12T17:55:42.528Z,51.49
2018-12-12T17:58:08.472Z,51.13
2018-12-12T18:00:34.415Z,51.24
2018-12-12T18:03:00.497Z,51.32
2018-12-12T18:05:26.443Z,51.41
2018-12-12T18:07:52.432Z,50.98
2018-12-12T18:10:18.392Z,51.49
2018-12-12T18:12:44.379Z,51.53
2018-12-12T18:15:10.344Z,51.34
2018-12-12T18:17:36.323Z,51.55
2018-12-12T18:20:02.272Z,51.84
2018-12-12T18:22:28.258Z,52.41
2018-12-12T18:24:55.250Z,52.10
2018-12-12T18:27:21.240Z,52.23
2018-12-12T18:29:47.203Z,52.79
2018-12-12T18:32:15.246Z,52.59
2018-12-12T18:34:41.276Z,51.84
2018-12-12T18:37:07.311Z,51.97
2018-12-12T18:39:37.604Z,51.85
2018-12-12T18:42:03.606Z,52.09
2018-12-12T18:44:33.150Z,52.13
2018-12-12T18:46:59.149Z,51.95
2018-12-12T18:49:25.126Z,52.15
2018-12-12T18:51:51.123Z,52.14
2018-12-12T18:54:17.150Z,51.78
2018-12-12T18:56:43.130Z,51.70
2018-12-12T18:59:09.093Z,52.71
2018-12-12T19:01:35.097Z,52.10
2018-12-12T19:04:01.505Z,52.27
2018-12-12T19:06:27.444Z,52.43
2018-12-12T19:08:53.415Z,51.99
2018-12-12T19:11:19.384Z,52.49
2018-12-12T19:13:45.331Z,52.18
2018-12-12T19:16:11.304Z,52.02
2018-12-12T19:18:37.294Z,51.33
2018-12-12T19:21:03.279Z,51.58
2018-12-12T19:23:29.264Z,51.55
2018-12-12T19:25:55.241Z,50.43
2018-12-12T19:28:21.246Z,50.84
2018-12-12T19:30:47.190Z,51.65
2018-12-12T19:33:13.389Z,51.78
2018-12-12T19:35:39.731Z,52.23
2018-12-12T19:38:05.711Z,51.65
2018-12-12T19:40:31.675Z,51.63
2018-12-12T19:42:57.656Z,51.92
2018-12-12T19:45:23.840Z,52.17
2018-12-12T19:47:49.818Z,51.96
2018-12-12T19:50:15.767Z,51.32
2018-12-12T19:52:41.838Z,51.47
2018-12-12T19:55:07.797Z,52.11
2018-12-12T19:57:33.752Z,51.10
2018-12-12T19:59:59.740Z,51.00
2018-12-12T20:02:30.241Z,51.99
2018-12-12T20:04:56.216Z,52.19
2018-12-12T20:07:22.185Z,52.80
2018-12-12T20:09:48.172Z,56.69
2018-12-12T20:12:14.116Z,51.84
2018-12-12T20:14:41.095Z,51.04
2018-12-12T20:17:07.039Z,51.91
2018-12-12T20:19:33.011Z,52.20
2018-12-12T20:21:58.977Z,52.43
2018-12-12T20:24:24.941Z,52.06
2018-12-12T20:26:50.892Z,52.73
2018-12-12T20:29:16.882Z,52.22
2018-12-12T20:31:43.208Z,52.21
2018-12-12T20:34:10.279Z,52.23
2018-12-12T20:36:36.228Z,52.30
2018-12-12T20:39:02.210Z,52.78
2018-12-12T20:41:28.186Z,51.85
2018-12-12T20:43:54.168Z,52.26
2018-12-12T20:46:20.104Z,51.96
2018-12-12T20:48:46.066Z,52.54
2018-12-12T20:56:20.361Z,51.20
2018-12-12T20:58:46.343Z,51.86
2018-12-12T21:01:12.294Z,51.65
2018-12-12T21:11:11.892Z,51.44
2018-12-12T21:13:37.927Z,51.36
2018-12-12T21:16:03.866Z,50.72
2018-12-12T21:18:29.825Z,50.83
2018-12-12T21:20:55.789Z,51.04
2018-12-12T21:23:21.810Z,51.34
2018-12-12T21:25:47.763Z,51.03
2018-12-12T21:30:45.064Z,50.42
2018-12-12T21:33:11.046Z,50.85
2018-12-12T21:35:36.976Z,50.59
2018-12-12T21:38:02.938Z,50.20
2018-12-12T21:40:28.888Z,49.89
2018-12-12T21:42:54.861Z,50.12
2018-12-12T21:45:20.805Z,50.52
2018-12-12T21:47:46.759Z,49.78
2018-12-12T21:50:12.695Z,50.33
2018-12-12T21:52:39.624Z,50.35
2018-12-12T21:55:05.576Z,49.23
2018-12-12T21:57:31.527Z,49.40
2018-12-12T21:59:57.488Z,49.43
2018-12-12T22:02:23.440Z,49.41
2018-12-12T22:04:49.407Z,49.33
2018-12-12T22:07:15.353Z,49.36
2018-12-12T22:09:41.347Z,49.06
2018-12-12T22:12:07.355Z,48.69
2018-12-12T22:14:33.352Z,49.29
2018-12-12T22:16:59.313Z,49.35
2018-12-12T22:19:25.268Z,47.85
2018-12-12T22:21:51.267Z,48.02
2018-12-12T22:24:18.316Z,47.99
2018-12-12T22:26:44.304Z,48.59
2018-12-12T22:29:10.290Z,49.53
2018-12-12T22:31:36.221Z,49.03
2018-12-12T22:34:02.174Z,49.28
2018-12-12T22:36:29.040Z,49.31
2018-12-12T22:38:54.984Z,49.04
2018-12-12T22:41:20.948Z,49.16
2018-12-12T22:43:46.982Z,49.01
2018-12-12T22:46:13.824Z,49.40
2018-12-12T22:48:39.780Z,49.30
2018-12-12T22:51:05.757Z,49.39
2018-12-12T22:53:31.740Z,48.81
2018-12-12T22:55:57.695Z,49.11
2018-12-12T22:58:23.667Z,49.29
2018-12-12T23:00:49.619Z,49.34
2018-12-12T23:03:15.572Z,49.46
2018-12-12T23:05:41.551Z,49.12
2018-12-12T23:08:07.497Z,49.15
2018-12-12T23:10:33.484Z,48.67
2018-12-12T23:13:00.088Z,48.86
2018-12-12T23:15:26.080Z,49.17
2018-12-12T23:17:52.018Z,49.87
2018-12-12T23:20:17.968Z,50.15
2018-12-12T23:22:43.903Z,50.96
2018-12-12T23:25:10.551Z,50.14
2018-12-12T23:27:36.504Z,49.75
2018-12-12T23:30:02.456Z,49.41
2018-12-12T23:32:28.395Z,49.17
2018-12-12T23:34:54.331Z,49.05
2018-12-12T23:37:20.274Z,49.02
2018-12-12T23:39:46.217Z,48.47
2018-12-12T23:42:12.160Z,48.39
2018-12-12T23:44:38.127Z,48.16
2018-12-12T23:47:05.071Z,49.14
2018-12-12T23:49:31.131Z,48.46
2018-12-12T23:51:57.087Z,48.78
2018-12-12T23:54:23.037Z,49.08
2018-12-12T23:59:22.224Z,49.42
